Time;durP1;ratioP1;P1;durP2;ratioP2;P2;SDS_P1;SDS_P2;PMS_P1;PMS_P2;Temp;Humidity;BMP_temperature;BMP_pressure;BME280_temperature;BME280_humidity;BME280_pressure;Samples;Min_cycle;Max_cycle;Signal;HPM_P1;HPM_P2
2022/01/24 00:00:26;;;;;;;3.25;2.40;;;17.10;93.80;;;;;;1966693;29;20204;-78
2022/01/24 00:01:25;;;;;;;3.50;2.95;;;17.10;93.70;;;;;;1966440;29;20187;-79
2022/01/24 00:02:26;;;;;;;2.75;2.20;;;17.10;93.80;;;;;;1966807;29;20184;-78
2022/01/24 00:03:25;;;;;;;3.30;2.53;;;17.10;93.80;;;;;;1966558;29;20568;-80
2022/01/24 00:04:24;;;;;;;3.50;2.60;;;17.10;93.70;;;;;;1966807;29;20334;-77
2022/01/24 00:05:23;;;;;;;3.35;2.33;;;17.00;93.70;;;;;;1966610;29;20635;-80
2022/01/24 00:06:23;;;;;;;4.27;2.93;;;17.20;93.80;;;;;;1966638;29;20180;-78
2022/01/24 00:07:24;;;;;;;5.22;2.50;;;17.10;93.70;;;;;;1966526;29;20424;-78
2022/01/24 00:08:22;;;;;;;4.18;2.70;;;17.10;93.80;;;;;;1966579;29;20180;-79
2022/01/24 00:09:21;;;;;;;3.23;2.60;;;17.10;93.80;;;;;;1966685;29;20168;-78
2022/01/24 00:10:24;;;;;;;8.27;2.60;;;17.10;93.90;;;;;;1966519;29;20300;-79
2022/01/24 00:11:28;;;;;;;2.72;2.13;;;17.10;93.80;;;;;;1966655;29;20188;-78
2022/01/24 00:14:31;;;;;;;3.03;2.50;;;17.10;93.80;;;;;;1943096;29;20187;-78
2022/01/24 00:15:47;;;;;;;6.00;2.55;;;17.10;93.80;;;;;;1946574;29;20190;-78
2022/01/24 00:18:09;;;;;;;6.75;3.70;;;17.00;93.80;;;;;;1966315;29;20547;-79
2022/01/24 00:26:42;;;;;;;4.00;2.20;;;17.00;93.70;;;;;;1966507;29;20157;-78
2022/01/24 00:27:40;;;;;;;3.90;2.80;;;17.00;93.80;;;;;;1966456;29;20165;-78
2022/01/24 00:28:39;;;;;;;4.20;2.70;;;17.00;93.80;;;;;;1966394;29;20203;-78
2022/01/24 00:29:37;;;;;;;6.57;2.77;;;17.00;93.80;;;;;;1966428;29;20490;-78
2022/01/24 00:30:36;;;;;;;3.33;2.37;;;17.00;93.70;;;;;;1966498;29;20231;-78
2022/01/24 00:31:35;;;;;;;4.13;2.57;;;17.00;93.70;;;;;;1966351;29;20181;-78
2022/01/24 00:32:33;;;;;;;4.40;2.23;;;17.00;93.70;;;;;;1966513;29;20184;-78
2022/01/24 00:33:32;;;;;;;3.47;2.70;;;17.00;93.80;;;;;;1978228;29;20235;-79
2022/01/24 00:34:30;;;;;;;3.57;2.97;;;17.00;93.80;;;;;;1981712;29;20187;-80
2022/01/24 00:35:29;;;;;;;4.17;2.47;;;17.00;93.80;;;;;;1981532;29;20175;-79
2022/01/24 00:36:29;;;;;;;6.00;3.30;;;17.00;93.80;;;;;;1981590;29;20183;-79
2022/01/24 00:37:32;;;;;;;3.35;2.60;;;17.10;93.80;;;;;;1981388;29;20411;-79
2022/01/24 00:38:32;;;;;;;3.67;2.72;;;17.00;93.80;;;;;;1973650;29;20188;-79
2022/01/24 00:39:31;;;;;;;3.55;2.88;;;17.00;94.10;;;;;;1973448;29;20561;-78
2022/01/24 00:40:38;;;;;;;3.77;2.57;;;17.00;93.90;;;;;;1981249;29;20203;-79
2022/01/24 00:41:52;;;;;;;4.80;3.13;;;17.00;93.90;;;;;;1981433;29;20407;-78
2022/01/24 00:42:59;;;;;;;3.95;2.60;;;17.00;93.90;;;;;;1981499;28;20155;-79
2022/01/24 00:46:29;;;;;;;3.47;2.40;;;17.00;93.90;;;;;;1981347;29;20171;-80
2022/01/24 00:47:42;;;;;;;3.85;2.95;;;17.00;93.80;;;;;;1981532;29;20611;-79
2022/01/24 00:54:51;;;;;;;2.72;2.40;;;16.90;93.90;;;;;;1981667;29;20214;-80
2022/01/24 00:55:50;;;;;;;4.07;2.30;;;16.90;93.90;;;;;;1981512;29;20234;-80
2022/01/24 00:56:50;;;;;;;2.70;1.97;;;16.90;93.90;;;;;;1981494;29;20172;-79
2022/01/24 00:57:48;;;;;;;2.75;2.00;;;17.00;94.00;;;;;;1981397;29;20230;-80
2022/01/24 00:58:47;;;;;;;3.67;2.50;;;16.90;94.00;;;;;;1981353;29;20239;-78
2022/01/24 00:59:46;;;;;;;3.77;2.23;;;16.90;93.90;;;;;;1981292;29;20688;-78
2022/01/24 01:00:45;;;;;;;2.67;2.10;;;17.00;94.00;;;;;;1981290;29;20799;-78
2022/01/24 01:01:43;;;;;;;2.37;2.10;;;17.00;93.90;;;;;;1981470;29;20381;-79
2022/01/24 01:02:42;;;;;;;2.83;2.03;;;17.00;93.90;;;;;;1981422;28;20258;-79
2022/01/24 01:03:41;;;;;;;2.90;2.43;;;17.00;93.90;;;;;;1981426;29;20163;-80
2022/01/24 01:05:01;;;;;;;3.47;2.40;;;17.00;93.90;;;;;;1981378;29;20399;-79
2022/01/24 01:06:08;;;;;;;5.68;2.25;;;17.00;93.80;;;;;;1981454;29;20562;-79
2022/01/24 01:07:07;;;;;;;4.55;2.85;;;16.90;93.90;;;;;;1981382;29;20528;-78
2022/01/24 01:18:14;;;;;;;2.67;2.45;;;16.90;94.10;;;;;;1981333;29;20593;-78
2022/01/24 01:19:12;;;;;;;2.75;2.20;;;16.90;94.10;;;;;;1988261;28;20675;-78
2022/01/24 01:20:12;;;;;;;3.13;1.87;;;16.90;94.10;;;;;;1988367;28;20198;-81
2022/01/24 01:21:14;;;;;;;5.35;2.28;;;16.90;94.10;;;;;;1981544;28;20183;-78
2022/01/24 01:22:13;;;;;;;4.50;2.08;;;16.90;94.10;;;;;;1981094;29;20523;-79
2022/01/24 01:23:11;;;;;;;3.13;2.10;;;16.90;94.10;;;;;;1981203;28;20198;-78
2022/01/24 01:24:10;;;;;;;2.93;2.03;;;16.90;94.00;;;;;;1981181;29;20179;-79
2022/01/24 01:25:09;;;;;;;2.80;2.10;;;16.90;94.10;;;;;;1981443;29;20697;-81
2022/01/24 01:26:16;;;;;;;3.00;2.17;;;16.90;94.00;;;;;;1981278;29;20278;-78
2022/01/24 01:27:20;;;;;;;2.42;2.20;;;16.90;94.00;;;;;;1981385;29;20166;-78
2022/01/24 01:28:20;;;;;;;3.60;2.38;;;16.90;94.10;;;;;;1981248;29;20222;-78
2022/01/24 01:29:24;;;;;;;2.70;2.00;;;16.90;94.10;;;;;;1981129;29;20206;-79
2022/01/24 01:30:34;;;;;;;3.53;2.42;;;16.90;94.10;;;;;;1981461;29;20170;-78
2022/01/24 01:33:07;;;;;;;2.95;2.25;;;16.90;94.10;;;;;;1972989;29;20169;-80
2022/01/24 01:36:19;;;;;;;2.15;1.83;;;16.90;94.20;;;;;;1981278;29;20160;-78
2022/01/24 01:38:47;;;;;;;3.60;2.40;;;16.90;94.20;;;;;;1981285;29;20229;-79
2022/01/24 01:56:34;;;;;;;5.43;2.10;;;16.80;94.20;;;;;;1981289;29;20403;-81
2022/01/24 01:57:33;;;;;;;3.37;2.10;;;16.80;94.10;;;;;;1981191;29;20206;-78
2022/01/24 01:58:32;;;;;;;3.40;2.30;;;16.80;94.00;;;;;;1980962;29;20565;-79
2022/01/24 01:59:31;;;;;;;4.25;2.00;;;16.80;94.10;;;;;;1981040;29;20638;-79
2022/01/24 02:00:29;;;;;;;2.10;1.90;;;16.80;94.00;;;;;;1981100;29;20211;-78
2022/01/24 02:01:28;;;;;;;3.47;2.67;;;16.90;94.10;;;;;;1981183;29;20179;-79
2022/01/24 02:02:26;;;;;;;5.40;2.40;;;16.90;94.10;;;;;;1981262;29;20597;-80
2022/01/24 02:03:27;;;;;;;2.10;1.73;;;16.90;94.10;;;;;;1981323;29;20201;-79
2022/01/24 02:04:26;;;;;;;3.40;2.03;;;16.90;94.10;;;;;;1972845;29;20280;-79
2022/01/24 02:05:24;;;;;;;2.67;2.00;;;16.90;94.20;;;;;;1972773;29;20184;-78
2022/01/24 02:06:24;;;;;;;3.27;2.00;;;16.90;94.10;;;;;;1980833;29;20175;-79
2022/01/24 02:07:22;;;;;;;5.85;1.90;;;16.90;94.10;;;;;;1980455;29;20598;-79
2022/01/24 02:08:30;;;;;;;3.73;1.90;;;16.80;94.20;;;;;;1980430;29;20182;-79
2022/01/24 02:09:30;;;;;;;2.50;1.75;;;16.80;94.10;;;;;;1981026;29;20239;-81
2022/01/24 02:10:34;;;;;;;3.17;2.00;;;16.80;94.10;;;;;;1972734;29;20573;-79
2022/01/24 02:11:32;;;;;;;2.67;2.38;;;16.80;94.10;;;;;;1973108;29;20164;-79
2022/01/24 02:12:31;;;;;;;2.53;2.20;;;16.80;94.40;;;;;;1981102;29;20331;-79
2022/01/24 02:13:31;;;;;;;3.20;2.40;;;16.80;94.20;;;;;;1981081;29;20199;-79
2022/01/24 02:14:35;;;;;;;3.03;2.20;;;16.80;94.10;;;;;;1981134;29;20175;-79
2022/01/24 02:16:45;;;;;;;2.17;1.93;;;16.80;94.20;;;;;;1981172;29;20563;-79
2022/01/24 02:19:05;;;;;;;2.28;1.88;;;16.80;94.20;;;;;;1981102;29;20178;-79
2022/01/24 02:20:13;;;;;;;2.60;1.80;;;16.80;94.10;;;;;;1981100;29;20170;-79
2022/01/24 02:21:29;;;;;;;2.38;1.83;;;16.80;94.10;;;;;;1981890;29;20252;-79
2022/01/24 02:22:41;;;;;;;2.30;1.88;;;16.80;94.10;;;;;;1982383;29;20155;-80
2022/01/24 02:23:48;;;;;;;4.32;1.95;;;16.80;94.10;;;;;;1982487;29;20156;-79
2022/01/24 02:24:55;;;;;;;3.05;2.63;;;16.80;94.20;;;;;;1974435;29;20153;-79
2022/01/24 02:25:57;;;;;;;2.45;1.90;;;16.80;94.10;;;;;;1968103;29;20173;-80
2022/01/24 02:26:56;;;;;;;3.10;2.30;;;16.80;94.10;;;;;;1974337;29;20180;-79
2022/01/24 02:27:58;;;;;;;3.60;2.47;;;16.80;94.20;;;;;;1984200;29;20189;-79
2022/01/24 02:30:15;;;;;;;2.00;1.60;;;16.80;94.20;;;;;;1982117;29;20170;-80
2022/01/24 02:31:35;;;;;;;2.03;1.83;;;16.80;94.20;;;;;;1980942;29;20152;-78
2022/01/24 02:32:39;;;;;;;2.30;2.00;;;16.80;94.10;;;;;;1980026;29;20151;-79
2022/01/24 02:33:37;;;;;;;2.05;1.83;;;16.80;94.00;;;;;;1982894;29;20282;-80
2022/01/24 02:34:40;;;;;;;3.37;2.37;;;16.80;94.00;;;;;;1982745;29;20179;-80
2022/01/24 02:35:38;;;;;;;1.73;1.63;;;16.70;94.00;;;;;;1982627;29;20163;-80
2022/01/24 02:36:37;;;;;;;2.17;1.53;;;16.80;94.00;;;;;;1982693;29;20180;-79
2022/01/24 02:37:37;;;;;;;2.90;2.27;;;16.80;94.00;;;;;;1974314;29;20566;-80
2022/01/24 02:38:55;;;;;;;3.85;1.90;;;16.80;94.00;;;;;;1974443;29;20576;-79
2022/01/24 02:39:59;;;;;;;2.53;2.17;;;16.80;94.10;;;;;;1982392;29;20171;-80
2022/01/24 02:48:55;;;;;;;2.30;2.00;;;16.70;94.00;;;;;;1981928;29;20187;-80
2022/01/24 02:49:53;;;;;;;2.00;1.77;;;16.70;94.40;;;;;;1982418;29;20535;-80
2022/01/24 02:51:17;;;;;;;2.07;1.87;;;16.70;94.00;;;;;;1982946;29;20167;-79
2022/01/24 02:52:17;;;;;;;2.63;1.98;;;16.70;94.10;;;;;;1982566;29;20163;-79
2022/01/24 02:53:16;;;;;;;3.45;2.20;;;16.80;94.10;;;;;;1982125;29;20270;-79
2022/01/24 02:54:21;;;;;;;2.07;1.57;;;16.70;94.10;;;;;;1982280;29;20226;-79
2022/01/24 02:55:20;;;;;;;1.88;1.67;;;16.70;94.10;;;;;;1982253;29;20488;-79
2022/01/24 02:56:19;;;;;;;3.07;2.50;;;16.70;94.10;;;;;;1982303;29;20248;-79
2022/01/24 02:57:19;;;;;;;2.27;1.60;;;16.70;94.00;;;;;;1982263;29;20405;-79
2022/01/24 02:58:17;;;;;;;2.50;1.92;;;16.70;94.10;;;;;;1982227;29;20533;-79
2022/01/24 02:59:17;;;;;;;5.30;2.17;;;16.80;94.10;;;;;;1982131;29;20199;-79
2022/01/24 03:00:15;;;;;;;2.55;2.00;;;16.70;94.00;;;;;;1982166;29;20562;-78
2022/01/24 03:01:14;;;;;;;2.90;1.90;;;16.70;94.10;;;;;;1982353;29;20177;-80
2022/01/24 03:02:13;;;;;;;3.00;2.70;;;16.70;94.10;;;;;;1982340;29;20809;-79
2022/01/24 03:03:12;;;;;;;2.17;1.60;;;16.70;94.10;;;;;;1982271;29;20557;-79
2022/01/24 03:04:11;;;;;;;1.80;1.60;;;16.70;94.10;;;;;;1982306;29;20179;-79
2022/01/24 03:05:09;;;;;;;2.30;1.77;;;16.70;94.20;;;;;;1981585;29;20179;-79
2022/01/24 03:06:08;;;;;;;5.40;2.37;;;16.70;94.00;;;;;;1981576;29;20414;-79
2022/01/24 03:07:07;;;;;;;1.70;1.60;;;16.70;94.10;;;;;;1982143;29;20526;-79
2022/01/24 03:08:06;;;;;;;1.87;1.50;;;16.70;94.10;;;;;;1982149;29;20206;-79
2022/01/24 03:09:06;;;;;;;2.10;1.80;;;16.70;94.10;;;;;;1982154;29;20179;-79
2022/01/24 03:10:13;;;;;;;2.10;1.60;;;16.70;93.90;;;;;;1982095;29;20186;-79
2022/01/24 03:11:11;;;;;;;4.03;1.83;;;16.70;94.00;;;;;;1981949;29;20562;-79
2022/01/24 03:12:13;;;;;;;1.73;1.37;;;16.70;94.00;;;;;;1982239;29;20175;-79
2022/01/24 03:14:16;;;;;;;2.78;1.98;;;16.70;94.00;;;;;;1982119;29;20179;-79
2022/01/24 03:15:16;;;;;;;3.13;2.00;;;16.70;94.10;;;;;;1982151;29;20206;-79
2022/01/24 03:16:14;;;;;;;2.80;2.10;;;16.70;94.10;;;;;;1982063;29;20596;-78
2022/01/24 03:17:13;;;;;;;2.03;1.87;;;16.60;94.10;;;;;;1982165;29;20224;-79
2022/01/24 03:18:11;;;;;;;1.70;1.40;;;16.70;94.10;;;;;;1982210;29;20626;-79
2022/01/24 03:19:10;;;;;;;2.13;1.70;;;16.70;94.10;;;;;;1982103;29;20168;-79
2022/01/24 03:20:09;;;;;;;1.60;1.50;;;16.70;94.00;;;;;;1981945;29;20547;-79
2022/01/24 03:21:08;;;;;;;2.43;1.77;;;16.70;94.00;;;;;;1982025;29;20171;-79
2022/01/24 03:22:09;;;;;;;2.70;1.70;;;16.70;94.00;;;;;;1981879;29;20195;-78
2022/01/24 03:23:08;;;;;;;2.40;1.95;;;16.70;94.10;;;;;;1982008;29;20191;-78
2022/01/24 03:24:07;;;;;;;1.48;1.38;;;16.70;94.10;;;;;;1982138;29;20213;-79
2022/01/24 03:25:06;;;;;;;1.60;1.50;;;16.70;94.10;;;;;;1982058;29;20186;-79
2022/01/24 03:26:04;;;;;;;2.03;1.40;;;16.70;94.10;;;;;;1982040;29;20198;-79
2022/01/24 03:27:03;;;;;;;4.10;2.00;;;16.70;94.10;;;;;;1982075;29;20489;-79
2022/01/24 03:28:04;;;;;;;1.90;1.57;;;16.60;94.00;;;;;;1981970;29;20199;-80
2022/01/24 03:29:03;;;;;;;1.95;1.77;;;16.60;94.00;;;;;;1973840;29;20483;-79
2022/01/24 03:30:02;;;;;;;2.35;1.70;;;16.70;94.10;;;;;;1973698;29;20214;-79
2022/01/24 03:31:01;;;;;;;3.10;1.83;;;16.60;94.20;;;;;;1981308;29;20179;-79
2022/01/24 03:31:59;;;;;;;2.13;1.60;;;16.60;94.10;;;;;;1973430;29;20295;-80
2022/01/24 03:32:59;;;;;;;2.43;1.43;;;16.60;94.10;;;;;;1972725;29;20203;-79
2022/01/24 03:33:57;;;;;;;3.35;1.73;;;16.60;94.10;;;;;;1980741;29;20174;-79
2022/01/24 03:34:56;;;;;;;5.57;1.57;;;16.70;94.10;;;;;;1981955;29;20199;-80
2022/01/24 03:35:56;;;;;;;2.03;1.53;;;16.70;94.10;;;;;;1982053;29;20254;-80
2022/01/24 03:36:54;;;;;;;2.40;1.90;;;16.60;94.10;;;;;;1981956;29;20246;-79
2022/01/24 03:37:53;;;;;;;2.60;1.60;;;16.60;94.00;;;;;;1973744;29;20180;-78
2022/01/24 03:38:52;;;;;;;2.17;1.73;;;16.60;94.00;;;;;;1973635;29;20176;-79
2022/01/24 03:39:50;;;;;;;2.60;2.00;;;16.70;94.10;;;;;;1981368;29;20403;-79
2022/01/24 03:40:49;;;;;;;2.23;1.80;;;16.60;94.00;;;;;;1981980;29;20199;-79
2022/01/24 03:41:48;;;;;;;2.90;1.53;;;16.70;94.10;;;;;;1981974;29;20199;-78
2022/01/24 03:42:46;;;;;;;2.23;1.70;;;16.70;94.10;;;;;;1981863;29;20531;-79
2022/01/24 03:43:45;;;;;;;1.73;1.43;;;16.60;94.10;;;;;;1981922;29;20187;-79
2022/01/24 03:44:46;;;;;;;1.70;1.60;;;16.60;93.90;;;;;;1982078;29;20206;-79
2022/01/24 03:45:48;;;;;;;1.40;1.30;;;16.60;94.00;;;;;;1981752;29;20619;-79
2022/01/24 03:48:10;;;;;;;2.05;1.30;;;16.60;94.10;;;;;;1958197;29;20613;-79
2022/01/24 03:49:21;;;;;;;2.97;1.90;;;16.50;94.00;;;;;;1978085;29;20627;-80
2022/01/24 03:50:19;;;;;;;2.17;1.60;;;16.60;94.10;;;;;;1981982;29;20166;-78
2022/01/24 03:51:19;;;;;;;1.83;1.60;;;16.60;94.10;;;;;;1981958;29;20186;-79
2022/01/24 03:52:19;;;;;;;1.90;1.55;;;16.60;94.00;;;;;;1981801;29;20255;-79
2022/01/24 03:53:18;;;;;;;1.27;1.15;;;16.60;94.00;;;;;;1973480;29;20207;-80
2022/01/24 03:54:16;;;;;;;1.90;1.43;;;16.60;94.10;;;;;;1973673;29;20182;-80
2022/01/24 03:55:15;;;;;;;2.00;1.27;;;16.60;94.10;;;;;;1981176;29;20638;-80
2022/01/24 03:56:14;;;;;;;2.73;1.37;;;16.50;94.00;;;;;;1981787;29;20186;-79
2022/01/24 03:57:15;;;;;;;2.23;1.33;;;16.50;94.10;;;;;;1981883;29;20180;-79
2022/01/24 03:58:14;;;;;;;1.92;1.45;;;16.60;94.20;;;;;;1981522;29;20415;-79
2022/01/24 03:59:12;;;;;;;1.87;1.53;;;16.60;94.20;;;;;;1981733;29;20577;-79
2022/01/24 04:00:12;;;;;;;1.80;1.70;;;16.50;94.10;;;;;;1981702;29;20263;-79
2022/01/24 04:01:11;;;;;;;1.83;1.65;;;16.60;94.10;;;;;;1981776;29;20167;-78
2022/01/24 04:02:10;;;;;;;2.40;1.90;;;16.50;94.00;;;;;;1981921;29;20167;-79
2022/01/24 04:03:10;;;;;;;2.10;1.63;;;16.50;94.10;;;;;;1981814;29;20646;-79
2022/01/24 04:04:08;;;;;;;1.52;1.27;;;16.50;94.10;;;;;;1973381;29;20203;-79
2022/01/24 04:05:08;;;;;;;1.93;1.67;;;16.50;94.10;;;;;;1973561;29;20183;-79
2022/01/24 04:06:07;;;;;;;1.15;1.02;;;16.50;94.10;;;;;;1981466;29;20246;-79
2022/01/24 04:07:06;;;;;;;1.60;1.50;;;16.60;94.30;;;;;;1981709;29;20191;-78
2022/01/24 04:08:05;;;;;;;2.60;1.80;;;16.60;94.20;;;;;;1981815;29;20457;-79
2022/01/24 04:09:03;;;;;;;1.70;1.60;;;16.50;94.10;;;;;;1981704;29;20249;-79
2022/01/24 04:10:07;;;;;;;2.37;1.70;;;16.60;94.10;;;;;;1981624;29;20250;-78
2022/01/24 04:11:10;;;;;;;1.50;1.40;;;16.60;94.10;;;;;;1981761;29;20170;-79
2022/01/24 04:12:11;;;;;;;1.80;1.48;;;16.50;94.00;;;;;;1981695;29;20155;-80
2022/01/24 04:14:55;;;;;;;2.97;1.67;;;16.60;94.10;;;;;;1964972;29;20191;-79
2022/01/24 04:21:59;;;;;;;1.83;1.48;;;16.50;94.00;;;;;;1981672;29;20252;-79
2022/01/24 04:23:00;;;;;;;1.70;1.60;;;16.50;94.40;;;;;;1981608;29;20617;-80
2022/01/24 04:24:07;;;;;;;2.58;1.55;;;16.50;94.10;;;;;;1973414;29;20797;-80
2022/01/24 04:25:13;;;;;;;1.60;1.40;;;16.50;94.00;;;;;;1973994;29;20176;-78
2022/01/24 04:26:12;;;;;;;1.90;1.77;;;16.50;94.00;;;;;;1981909;29;20162;-80
2022/01/24 04:27:13;;;;;;;3.10;1.70;;;16.50;94.00;;;;;;1981771;29;20684;-80
2022/01/24 04:28:12;;;;;;;2.08;1.88;;;16.50;94.00;;;;;;1981606;29;20174;-79
2022/01/24 04:29:10;;;;;;;2.00;1.60;;;16.50;94.00;;;;;;1981711;29;20183;-79
2022/01/24 04:30:10;;;;;;;1.57;1.47;;;16.50;94.10;;;;;;1981698;29;20251;-79
2022/01/24 04:31:10;;;;;;;2.00;1.25;;;16.50;94.00;;;;;;1981520;29;20171;-79
2022/01/24 04:32:09;;;;;;;6.88;1.70;;;16.50;94.00;;;;;;1973299;29;20183;-78
2022/01/24 04:33:07;;;;;;;1.50;1.30;;;16.50;94.00;;;;;;1970326;29;20757;-79
2022/01/24 04:34:06;;;;;;;2.57;1.60;;;16.60;93.90;;;;;;1965198;29;20550;-80
2022/01/24 04:35:05;;;;;;;2.70;1.47;;;16.50;93.90;;;;;;1965889;29;20647;-79
2022/01/24 04:36:04;;;;;;;3.07;1.43;;;16.50;94.00;;;;;;1966537;29;20183;-79
2022/01/24 04:37:03;;;;;;;2.17;1.77;;;16.50;94.00;;;;;;1966577;29;20813;-79
2022/01/24 04:38:01;;;;;;;1.53;1.20;;;16.50;94.00;;;;;;1966429;29;20408;-80
2022/01/24 04:39:00;;;;;;;2.03;1.50;;;16.50;94.00;;;;;;1966312;29;20464;-80
2022/01/24 04:39:58;;;;;;;2.97;1.77;;;16.50;93.90;;;;;;1966361;29;20217;-79
2022/01/24 04:41:01;;;;;;;2.07;1.50;;;16.50;94.00;;;;;;1966290;29;20176;-79
2022/01/24 04:42:07;;;;;;;1.70;1.60;;;16.50;94.00;;;;;;1973229;29;20259;-78
2022/01/24 04:43:29;;;;;;;1.50;1.40;;;16.50;94.20;;;;;;1972809;29;20295;-80
2022/01/24 04:45:50;;;;;;;2.85;1.50;;;16.50;94.00;;;;;;1966100;29;20165;-80
2022/01/24 04:47:12;;;;;;;2.28;1.30;;;16.50;94.00;;;;;;1966237;29;20256;-79
2022/01/24 04:50:58;;;;;;;1.70;1.55;;;16.50;94.00;;;;;;1966233;29;20172;-80
2022/01/24 04:53:51;;;;;;;2.30;1.50;;;16.40;94.00;;;;;;1957769;29;20696;-79
2022/01/24 04:54:45;;;;;;;1.60;1.50;;;16.40;94.00;;;;;;1966139;29;20183;-79
2022/01/24 04:55:43;;;;;;;1.52;1.42;;;16.50;94.10;;;;;;1966386;29;20168;-78
2022/01/24 04:56:43;;;;;;;4.43;1.43;;;16.40;94.00;;;;;;1973231;29;20537;-79
2022/01/24 04:57:42;;;;;;;3.40;1.58;;;16.50;94.10;;;;;;1973093;29;20190;-78
2022/01/24 04:58:40;;;;;;;1.47;1.37;;;16.40;94.10;;;;;;1966491;29;20180;-79
2022/01/24 04:59:41;;;;;;;1.47;1.27;;;16.50;94.10;;;;;;1966239;29;20264;-79
2022/01/24 05:00:40;;;;;;;1.80;1.60;;;16.50;94.00;;;;;;1966215;29;20247;-79
2022/01/24 05:01:38;;;;;;;1.50;1.40;;;16.40;94.00;;;;;;1966410;29;20184;-78
2022/01/24 05:02:37;;;;;;;1.63;1.53;;;16.40;94.10;;;;;;1966398;29;20168;-78
2022/01/24 05:03:35;;;;;;;1.50;1.40;;;16.40;94.00;;;;;;1966212;29;20256;-78
2022/01/24 05:04:34;;;;;;;1.70;1.20;;;16.40;94.00;;;;;;1966457;29;20251;-78
2022/01/24 05:05:33;;;;;;;1.90;1.42;;;16.40;94.10;;;;;;1966289;29;20224;-78
2022/01/24 05:06:32;;;;;;;2.70;1.73;;;16.40;94.10;;;;;;1966103;29;20696;-78
2022/01/24 05:07:31;;;;;;;1.40;1.30;;;16.40;94.00;;;;;;1966218;29;20308;-79
2022/01/24 05:08:30;;;;;;;1.83;1.55;;;16.40;94.10;;;;;;1966379;29;20304;-78
2022/01/24 05:09:34;;;;;;;2.27;1.60;;;16.40;94.20;;;;;;1966440;29;20185;-78
2022/01/24 05:10:39;;;;;;;1.70;1.42;;;16.40;94.00;;;;;;1966066;29;20655;-78
2022/01/24 05:11:49;;;;;;;2.47;1.77;;;16.30;94.00;;;;;;1966346;29;20608;-79
2022/01/24 05:24:12;;;;;;;1.92;1.73;;;16.40;94.10;;;;;;1974848;29;20149;-76
2022/01/24 05:25:11;;;;;;;2.57;1.60;;;16.30;94.00;;;;;;1971487;29;20217;-79
2022/01/24 05:26:11;;;;;;;2.50;1.50;;;16.30;94.20;;;;;;1966963;29;20184;-80
2022/01/24 05:27:09;;;;;;;1.95;1.55;;;16.30;94.20;;;;;;1973530;29;20175;-79
2022/01/24 05:28:08;;;;;;;5.40;1.50;;;16.40;94.20;;;;;;1973731;29;20172;-79
2022/01/24 05:29:06;;;;;;;1.57;1.20;;;16.40;94.40;;;;;;1966659;29;20518;-79
2022/01/24 05:30:05;;;;;;;1.80;1.43;;;16.40;94.10;;;;;;1966158;29;20287;-79
2022/01/24 05:31:05;;;;;;;1.48;1.30;;;16.40;94.10;;;;;;1966001;29;20371;-79
2022/01/24 05:32:05;;;;;;;2.53;2.13;;;16.40;94.20;;;;;;1973000;29;20422;-79
2022/01/24 05:33:03;;;;;;;1.85;1.58;;;16.40;94.10;;;;;;1972909;29;20200;-78
2022/01/24 05:34:02;;;;;;;1.53;1.30;;;16.40;94.10;;;;;;1965441;29;20227;-79
2022/01/24 05:35:01;;;;;;;1.83;1.43;;;16.40;94.10;;;;;;1965512;29;20229;-80
2022/01/24 05:35:59;;;;;;;2.50;1.40;;;16.40;94.00;;;;;;1966066;29;20177;-79
2022/01/24 05:36:58;;;;;;;2.33;1.70;;;16.40;94.30;;;;;;1966034;29;20413;-79
2022/01/24 05:37:56;;;;;;;1.80;1.40;;;16.40;94.00;;;;;;1965983;29;20177;-78
2022/01/24 05:38:56;;;;;;;1.57;1.30;;;16.40;94.10;;;;;;1972900;29;20226;-79
2022/01/24 05:39:55;;;;;;;2.17;1.55;;;16.40;94.10;;;;;;1973334;29;20168;-79
2022/01/24 05:40:54;;;;;;;1.97;1.70;;;16.40;94.00;;;;;;1965720;29;20690;-78
2022/01/24 05:41:52;;;;;;;1.80;1.53;;;16.40;94.00;;;;;;1965529;29;20476;-78
2022/01/24 05:42:51;;;;;;;3.67;1.80;;;16.40;94.10;;;;;;1966006;29;20169;-78
2022/01/24 05:43:49;;;;;;;1.77;1.20;;;16.40;94.10;;;;;;1966078;29;20628;-78
2022/01/24 05:44:52;;;;;;;1.60;1.50;;;16.40;94.10;;;;;;1965913;29;20196;-78
2022/01/24 05:45:51;;;;;;;1.67;1.50;;;16.40;94.00;;;;;;1965986;29;20651;-80
2022/01/24 05:46:49;;;;;;;2.50;1.30;;;16.40;94.00;;;;;;1965922;29;20180;-78
2022/01/24 05:47:48;;;;;;;1.47;1.20;;;16.40;94.10;;;;;;1966347;29;20172;-76
2022/01/24 05:48:47;;;;;;;1.90;1.70;;;16.40;94.10;;;;;;1973159;29;20202;-80
2022/01/24 05:49:45;;;;;;;1.83;1.40;;;16.40;94.10;;;;;;1965360;29;20220;-78
2022/01/24 05:50:44;;;;;;;1.70;1.40;;;16.40;94.10;;;;;;1965351;29;20288;-79
2022/01/24 05:51:42;;;;;;;1.70;1.60;;;16.40;94.10;;;;;;1965986;29;20185;-79
2022/01/24 05:52:44;;;;;;;2.10;1.47;;;16.40;94.10;;;;;;1965799;29;20670;-79
2022/01/24 05:53:43;;;;;;;2.70;1.60;;;16.40;94.10;;;;;;1966086;29;20183;-79
2022/01/24 05:54:42;;;;;;;1.50;1.40;;;16.40;94.20;;;;;;1965942;29;20529;-81
2022/01/24 05:55:41;;;;;;;2.13;1.88;;;16.40;94.10;;;;;;1973098;29;20203;-80
2022/01/24 05:56:39;;;;;;;1.90;1.57;;;16.40;94.10;;;;;;1974567;29;20172;-80
2022/01/24 05:57:38;;;;;;;2.10;1.60;;;16.40;94.00;;;;;;1967821;29;20200;-81
2022/01/24 05:58:36;;;;;;;2.83;1.50;;;16.40;94.10;;;;;;1967416;29;20172;-80
2022/01/24 05:59:37;;;;;;;1.33;1.23;;;16.40;94.10;;;;;;1967406;29;20184;-80
2022/01/24 06:00:35;;;;;;;1.30;1.20;;;16.40;94.10;;;;;;1967511;29;20709;-79
2022/01/24 06:01:34;;;;;;;1.23;1.13;;;16.40;94.10;;;;;;1967497;29;20181;-79
2022/01/24 06:02:32;;;;;;;2.40;1.50;;;16.40;94.10;;;;;;1967400;29;20586;-79
2022/01/24 06:03:31;;;;;;;2.00;1.60;;;16.40;94.00;;;;;;1966806;29;20319;-81
2022/01/24 06:04:30;;;;;;;1.80;1.40;;;16.40;94.10;;;;;;1967074;29;20184;-79
2022/01/24 06:05:28;;;;;;;1.63;1.53;;;16.40;94.10;;;;;;1967197;29;20327;-80
2022/01/24 06:06:27;;;;;;;2.10;1.60;;;16.40;94.20;;;;;;1966950;29;20311;-80
2022/01/24 06:07:25;;;;;;;1.47;1.10;;;16.40;94.10;;;;;;1967299;29;20227;-79
2022/01/24 06:08:24;;;;;;;1.50;1.40;;;16.40;94.10;;;;;;1967348;29;20231;-80
2022/01/24 06:09:23;;;;;;;1.73;1.50;;;16.40;94.10;;;;;;1967499;29;20704;-79
2022/01/24 06:10:21;;;;;;;5.53;1.60;;;16.30;94.00;;;;;;1967453;29;20255;-80
2022/01/24 06:11:23;;;;;;;2.43;1.80;;;16.40;94.10;;;;;;1967621;29;20632;-80
2022/01/24 06:12:23;;;;;;;2.40;1.88;;;16.40;94.10;;;;;;1967623;29;20172;-79
2022/01/24 06:13:22;;;;;;;2.08;1.67;;;16.30;94.10;;;;;;1967741;29;20200;-80
2022/01/24 06:14:20;;;;;;;3.83;1.70;;;16.40;94.10;;;;;;1974518;29;20184;-80
2022/01/24 06:15:19;;;;;;;1.70;1.40;;;16.30;94.00;;;;;;1974599;29;20179;-80
2022/01/24 06:16:17;;;;;;;1.50;1.37;;;16.40;94.10;;;;;;1967794;29;20187;-80
2022/01/24 06:17:17;;;;;;;1.40;1.30;;;16.30;94.10;;;;;;1967410;29;20191;-80
2022/01/24 06:18:16;;;;;;;2.75;1.45;;;16.30;94.10;;;;;;1967300;29;20188;-79
2022/01/24 06:19:15;;;;;;;1.67;1.40;;;16.30;94.10;;;;;;1967486;29;20176;-81
2022/01/24 06:20:14;;;;;;;1.97;1.60;;;16.30;94.10;;;;;;1967511;29;20666;-79
2022/01/24 06:21:14;;;;;;;2.17;1.40;;;16.30;94.20;;;;;;1966771;29;20199;-80
2022/01/24 06:22:12;;;;;;;3.22;1.90;;;16.30;94.00;;;;;;1966820;29;20168;-79
2022/01/24 06:23:14;;;;;;;2.90;1.90;;;16.30;94.10;;;;;;1967203;29;20203;-79
2022/01/24 06:24:13;;;;;;;1.55;1.42;;;16.30;94.00;;;;;;1967427;29;20258;-78
2022/01/24 06:25:13;;;;;;;2.17;1.70;;;16.30;94.10;;;;;;1967341;29;20673;-79
2022/01/24 06:26:13;;;;;;;2.58;1.70;;;16.30;93.90;;;;;;1967279;29;20190;-78
2022/01/24 06:27:12;;;;;;;2.03;1.30;;;16.30;94.10;;;;;;1967255;29;20277;-78
2022/01/24 06:28:11;;;;;;;2.13;1.57;;;16.30;94.10;;;;;;1967321;29;20733;-78
2022/01/24 06:29:11;;;;;;;1.67;1.50;;;16.30;94.00;;;;;;1967252;29;20177;-78
2022/01/24 06:30:11;;;;;;;1.90;1.70;;;16.30;94.10;;;;;;1967169;29;20216;-79
2022/01/24 06:31:09;;;;;;;2.15;1.98;;;16.30;94.10;;;;;;1966914;29;20190;-78
2022/01/24 06:32:08;;;;;;;1.93;1.70;;;16.40;94.10;;;;;;1967337;29;20185;-80
2022/01/24 06:33:07;;;;;;;2.13;1.63;;;16.30;94.00;;;;;;1973962;29;21152;-79
2022/01/24 06:34:06;;;;;;;2.57;1.90;;;16.30;94.10;;;;;;1974164;29;20203;-79
2022/01/24 06:35:05;;;;;;;1.73;1.52;;;16.30;94.00;;;;;;1967556;29;20279;-79
2022/01/24 06:36:04;;;;;;;3.07;1.70;;;16.30;94.00;;;;;;1967236;29;20172;-79
2022/01/24 06:37:03;;;;;;;2.55;1.80;;;16.30;94.00;;;;;;1967242;29;20452;-79
2022/01/24 06:38:01;;;;;;;2.22;1.60;;;16.30;94.10;;;;;;1967168;29;20181;-79
2022/01/24 06:39:01;;;;;;;1.80;1.70;;;16.30;94.10;;;;;;1967131;29;20188;-78
2022/01/24 06:40:00;;;;;;;2.20;1.80;;;16.30;94.10;;;;;;1967074;29;20180;-78
2022/01/24 06:40:58;;;;;;;1.57;1.40;;;16.40;94.10;;;;;;1967089;29;20644;-79
2022/01/24 06:42:12;;;;;;;2.53;1.60;;;16.30;94.00;;;;;;1967277;29;20179;-80
2022/01/24 06:43:10;;;;;;;1.63;1.52;;;16.30;94.10;;;;;;1974187;29;20218;-79
2022/01/24 06:44:09;;;;;;;2.57;1.70;;;16.30;94.00;;;;;;1974334;29;20270;-79
2022/01/24 06:45:09;;;;;;;5.23;1.97;;;16.30;94.10;;;;;;1967799;29;20183;-79
2022/01/24 06:46:07;;;;;;;2.88;1.50;;;16.30;94.00;;;;;;1967233;29;20471;-79